Sankofa — 9GMV — position and weather

sailwx.info

Track history (hours):
 
Tides and Currents Weather Stations Pressure Air Temp Water Temp Dewpoint Dewpoint Depression Visibility Wind Speed Wind Dir Waves Ship Positions

Sankofa

Last reported at 2017-Sep-20 08:56 UTC. Time now 2017-Sep-22 02:41 UTC.
Position N 05°16' W 000°17'.

Length 57 m; draft 5.2 m.

Type: Fishing. MMSI: 627163000.

Date/timePositionNaut miles runAvg speedWind from/ knotsBaromVisibWave heightAir tempDewpointWater temp
2017-Sep-20 08:56N 05°16' W 000°17'5 9.8
2017-Sep-20 08:23N 05°19' W 000°22'5 3.0
2017-Sep-20 06:48N 05°22' W 000°26'4 0.2
2017-Sep-19 07:11N 05°25' W 000°24'0 0.5
2017-Sep-19 06:58N 05°25' W 000°24'3 5.5
2017-Sep-19 06:25N 05°26' W 000°21'4 9.5
2017-Sep-19 06:00N 05°24' W 000°17'5 9.5
2017-Sep-19 05:30N 05°23' W 000°13'5 9.7
2017-Sep-19 05:00N 05°21' W 000°08'5 9.6
2017-Sep-19 04:30N 05°21' W 000°03'5 9.7
2017-Sep-19 04:00N 05°21' E 000°02'5 9.4
2017-Sep-19 03:30N 05°21' E 000°06'5 9.6
2017-Sep-19 03:00N 05°21' E 000°11'5 9.4
2017-Sep-19 02:30N 05°21' E 000°16'  
2017-Sep-16 14:55N 05°15' E 000°24'5 5.4
2017-Sep-16 13:57N 05°12' E 000°20'510.4
2017-Sep-16 13:28N 05°12' E 000°15'510.3
2017-Sep-16 12:59N 05°11' E 000°10'4 7.4
2017-Sep-16 12:30N 05°11' E 000°06'2 4.1
2017-Sep-16 11:59N 05°11' E 000°04'5 3.3
2017-Sep-16 10:35N 05°12' W 000°00'1 9.4
2017-Sep-16 10:30N 05°13' W 000°01'2 3.3
2017-Sep-16 10:00N 05°14' W 000°02'4 8.7
2017-Sep-16 09:30N 05°16' W 000°06'4 8.8
2017-Sep-16 09:00N 05°19' W 000°09'4 9.0
2017-Sep-16 08:30N 05°22' W 000°12'5 9.1
2017-Sep-16 08:00N 05°25' W 000°16'3 6.0
2017-Sep-16 07:30N 05°27' W 000°18'0 0.8
2017-Sep-16 07:00N 05°27' W 000°19'0 0.5
2017-Sep-16 06:31N 05°26' W 000°19'1 1.5
2017-Sep-16 06:00N 05°26' W 000°19'1 1.1
2017-Sep-16 05:30N 05°26' W 000°20'0 0.5
2017-Sep-16 05:00N 05°25' W 000°20'0 0.6
2017-Sep-16 04:29N 05°25' W 000°20'1 1.8
2017-Sep-16 04:00N 05°24' W 000°20'6 6.6
2017-Sep-16 03:09N 05°19' W 000°18'1 9.1
2017-Sep-16 03:00N 05°19' W 000°16'5 9.2
2017-Sep-16 02:29N 05°18' W 000°12'4 9.3
2017-Sep-16 02:00N 05°18' W 000°07'5 9.1
2017-Sep-16 01:29N 05°17' W 000°02'5 9.4
2017-Sep-16 00:59N 05°16' E 000°02'5 9.4
2017-Sep-16 00:30N 05°16' E 000°07'5 9.3
2017-Sep-16 00:00N 05°16' E 000°12'11 0.9
2017-Sep-15 11:45N 05°18' E 000°22'2 9.9
2017-Sep-15 11:30N 05°19' E 000°20'5 9.8
2017-Sep-15 11:00N 05°21' E 000°15'5 9.9
2017-Sep-15 10:30N 05°22' E 000°11'4 8.0
2017-Sep-15 10:00N 05°23' E 000°07'5 9.9
2017-Sep-15 09:30N 05°18' E 000°07'3 5.8
2017-Sep-15 08:59N 05°15' E 000°08'18 1.1
2017-Sep-14 17:08N 04°57' E 000°10'40 1.5
2017-Sep-13 13:39N 05°20' W 000°24'1 9.8
2017-Sep-13 13:30N 05°21' W 000°23'5 9.7
2017-Sep-13 13:01N 05°25' W 000°20'2 4.0
2017-Sep-13 12:30N 05°26' W 000°19'1 1.7
2017-Sep-13 12:00N 05°25' W 000°18'1 1.3
2017-Sep-13 11:31N 05°26' W 000°19'0 0.3
2017-Sep-13 11:01N 05°26' W 000°19'4 8.6
2017-Sep-13 10:31N 05°24' W 000°23'510.2
2017-Sep-13 10:00N 05°21' W 000°27'  
Track history (hours):
 
Tides and Currents Weather Stations Pressure Air Temp Water Temp Dewpoint Dewpoint Depression Visibility Wind Speed Wind Dir Waves Ship Positions

Sankofa

Last reported at 2017-Sep-20 08:56 UTC. Time now 2017-Sep-22 02:41 UTC.
Position N 05°16' W 000°17'.

Length 57 m; draft 5.2 m.

Type: Fishing. MMSI: 627163000.

Date/timePositionNaut miles runAvg speedWind from/ knotsBaromVisibWave heightAir tempDewpointWater temp
2017-Sep-20 08:56N 05°16' W 000°17'5 9.8
2017-Sep-20 08:23N 05°19' W 000°22'5 3.0
2017-Sep-20 06:48N 05°22' W 000°26'4 0.2
2017-Sep-19 07:11N 05°25' W 000°24'0 0.5
2017-Sep-19 06:58N 05°25' W 000°24'3 5.5
2017-Sep-19 06:25N 05°26' W 000°21'4 9.5
2017-Sep-19 06:00N 05°24' W 000°17'5 9.5
2017-Sep-19 05:30N 05°23' W 000°13'5 9.7
2017-Sep-19 05:00N 05°21' W 000°08'5 9.6
2017-Sep-19 04:30N 05°21' W 000°03'5 9.7
2017-Sep-19 04:00N 05°21' E 000°02'5 9.4
2017-Sep-19 03:30N 05°21' E 000°06'5 9.6
2017-Sep-19 03:00N 05°21' E 000°11'5 9.4
2017-Sep-19 02:30N 05°21' E 000°16'  
2017-Sep-16 14:55N 05°15' E 000°24'5 5.4
2017-Sep-16 13:57N 05°12' E 000°20'510.4
2017-Sep-16 13:28N 05°12' E 000°15'510.3
2017-Sep-16 12:59N 05°11' E 000°10'4 7.4
2017-Sep-16 12:30N 05°11' E 000°06'2 4.1
2017-Sep-16 11:59N 05°11' E 000°04'5 3.3
2017-Sep-16 10:35N 05°12' W 000°00'1 9.4
2017-Sep-16 10:30N 05°13' W 000°01'2 3.3
2017-Sep-16 10:00N 05°14' W 000°02'4 8.7
2017-Sep-16 09:30N 05°16' W 000°06'4 8.8
2017-Sep-16 09:00N 05°19' W 000°09'4 9.0
2017-Sep-16 08:30N 05°22' W 000°12'5 9.1
2017-Sep-16 08:00N 05°25' W 000°16'3 6.0
2017-Sep-16 07:30N 05°27' W 000°18'0 0.8
2017-Sep-16 07:00N 05°27' W 000°19'0 0.5
2017-Sep-16 06:31N 05°26' W 000°19'1 1.5
2017-Sep-16 06:00N 05°26' W 000°19'1 1.1
2017-Sep-16 05:30N 05°26' W 000°20'0 0.5
2017-Sep-16 05:00N 05°25' W 000°20'0 0.6
2017-Sep-16 04:29N 05°25' W 000°20'1 1.8
2017-Sep-16 04:00N 05°24' W 000°20'6 6.6
2017-Sep-16 03:09N 05°19' W 000°18'1 9.1
2017-Sep-16 03:00N 05°19' W 000°16'5 9.2
2017-Sep-16 02:29N 05°18' W 000°12'4 9.3
2017-Sep-16 02:00N 05°18' W 000°07'5 9.1
2017-Sep-16 01:29N 05°17' W 000°02'5 9.4
2017-Sep-16 00:59N 05°16' E 000°02'5 9.4
2017-Sep-16 00:30N 05°16' E 000°07'5 9.3
2017-Sep-16 00:00N 05°16' E 000°12'11 0.9
2017-Sep-15 11:45N 05°18' E 000°22'2 9.9
2017-Sep-15 11:30N 05°19' E 000°20'5 9.8
2017-Sep-15 11:00N 05°21' E 000°15'5 9.9
2017-Sep-15 10:30N 05°22' E 000°11'4 8.0
2017-Sep-15 10:00N 05°23' E 000°07'5 9.9
2017-Sep-15 09:30N 05°18' E 000°07'3 5.8
2017-Sep-15 08:59N 05°15' E 000°08'18 1.1
2017-Sep-14 17:08N 04°57' E 000°10'40 1.5
2017-Sep-13 13:39N 05°20' W 000°24'1 9.8
2017-Sep-13 13:30N 05°21' W 000°23'5 9.7
2017-Sep-13 13:01N 05°25' W 000°20'2 4.0
2017-Sep-13 12:30N 05°26' W 000°19'1 1.7
2017-Sep-13 12:00N 05°25' W 000°18'1 1.3
2017-Sep-13 11:31N 05°26' W 000°19'0 0.3
2017-Sep-13 11:01N 05°26' W 000°19'4 8.6
2017-Sep-13 10:31N 05°24' W 000°23'510.2
2017-Sep-13 10:00N 05°21' W 000°27'  

Dump ship's entire track history